Time;durP1;ratioP1;P1;durP2;ratioP2;P2;SDS_P1;SDS_P2;PMS_P1;PMS_P2;Temp;Humidity;BMP_temperature;BMP_pressure;BME280_temperature;BME280_humidity;BME280_pressure;Samples;Min_cycle;Max_cycle;Signal;HPM_P1;HPM_P2
2021/09/08 00:01:03;;;;;;;3.78;0.75;;;;;;;;;;5031399;28;20427;-73
2021/09/08 00:03:30;;;;;;;3.20;0.57;;;;;;;;;;5031059;28;20116;-71
2021/09/08 00:05:57;;;;;;;6.47;1.10;;;;;;;;;;5032397;28;20418;-72
2021/09/08 00:08:25;;;;;;;4.82;0.70;;;;;;;;;;5041013;28;20022;-71
2021/09/08 00:10:53;;;;;;;4.82;0.80;;;;;;;;;;5030384;28;20390;-70
2021/09/08 00:13:21;;;;;;;5.20;0.75;;;;;;;;;;5031902;28;20453;-72
2021/09/08 00:15:48;;;;;;;6.38;0.95;;;;;;;;;;5045742;28;20037;-71
2021/09/08 00:18:15;;;;;;;3.95;1.00;;;;;;;;;;5041335;28;20030;-72
2021/09/08 00:20:42;;;;;;;3.00;0.75;;;;;;;;;;5034937;28;20029;-73
2021/09/08 00:23:09;;;;;;;4.05;1.23;;;;;;;;;;5034768;28;20442;-72
2021/09/08 00:25:36;;;;;;;2.72;1.25;;;;;;;;;;5037598;28;20042;-74
2021/09/08 00:28:04;;;;;;;3.45;0.80;;;;;;;;;;5035054;28;20030;-73
2021/09/08 00:30:31;;;;;;;5.25;1.25;;;;;;;;;;5038450;28;20032;-73
2021/09/08 00:32:58;;;;;;;5.45;1.25;;;;;;;;;;5042808;28;20033;-72
2021/09/08 00:35:26;;;;;;;8.68;0.93;;;;;;;;;;5036702;28;20028;-71
2021/09/08 00:37:53;;;;;;;5.65;0.93;;;;;;;;;;5040847;28;20060;-71
2021/09/08 00:40:20;;;;;;;5.38;1.38;;;;;;;;;;5038539;28;20498;-72
2021/09/08 00:42:47;;;;;;;6.70;1.33;;;;;;;;;;5041176;28;20109;-71
2021/09/08 00:45:14;;;;;;;6.90;1.00;;;;;;;;;;5039124;28;20063;-70
2021/09/08 00:47:41;;;;;;;6.68;1.45;;;;;;;;;;5034545;28;20032;-71
2021/09/08 00:50:10;;;;;;;6.18;1.35;;;;;;;;;;5034421;28;20167;-71
2021/09/08 00:52:42;;;;;;;4.45;1.10;;;;;;;;;;5040250;28;20028;-71
2021/09/08 00:55:09;;;;;;;6.15;1.13;;;;;;;;;;5038955;28;20022;-71
2021/09/08 00:57:36;;;;;;;5.25;1.25;;;;;;;;;;5036935;28;20474;-71
2021/09/08 01:00:04;;;;;;;7.55;1.23;;;;;;;;;;5038716;28;20470;-71
2021/09/08 01:02:31;;;;;;;8.18;1.60;;;;;;;;;;5034093;28;20025;-71
2021/09/08 01:04:58;;;;;;;5.47;1.60;;;;;;;;;;5040040;28;20032;-71
2021/09/08 01:07:26;;;;;;;6.15;0.95;;;;;;;;;;5032307;28;20478;-71
2021/09/08 01:09:53;;;;;;;6.20;1.13;;;;;;;;;;5033590;28;20033;-71
2021/09/08 01:12:20;;;;;;;4.63;0.98;;;;;;;;;;5031315;28;20449;-72
2021/09/08 01:14:47;;;;;;;3.50;0.95;;;;;;;;;;5039931;28;20024;-70
2021/09/08 01:17:18;;;;;;;2.72;0.82;;;;;;;;;;5044639;28;20124;-71
2021/09/08 01:19:45;;;;;;;8.88;1.33;;;;;;;;;;5036654;28;20526;-72
2021/09/08 01:22:12;;;;;;;6.35;1.65;;;;;;;;;;5034483;28;20386;-72
2021/09/08 01:24:43;;;;;;;6.20;1.20;;;;;;;;;;5040166;28;20025;-71
2021/09/08 01:27:11;;;;;;;7.70;1.50;;;;;;;;;;5037722;28;20121;-72
2021/09/08 01:29:38;;;;;;;6.32;1.67;;;;;;;;;;5040089;28;20032;-72
2021/09/08 01:32:05;;;;;;;6.03;1.27;;;;;;;;;;5036237;28;20025;-72
2021/09/08 01:34:32;;;;;;;5.47;0.93;;;;;;;;;;5039412;28;20021;-72
2021/09/08 01:36:59;;;;;;;8.75;1.25;;;;;;;;;;5035976;28;20080;-72
2021/09/08 01:39:26;;;;;;;4.45;1.08;;;;;;;;;;5042652;28;20106;-72
2021/09/08 01:41:53;;;;;;;3.90;0.95;;;;;;;;;;5036608;28;20113;-71
2021/09/08 01:44:22;;;;;;;6.00;1.42;;;;;;;;;;5040662;28;20031;-71
2021/09/08 01:46:50;;;;;;;5.78;1.02;;;;;;;;;;5045055;28;20030;-71
2021/09/08 01:49:17;;;;;;;4.40;0.77;;;;;;;;;;5036366;28;20037;-72
2021/09/08 01:51:45;;;;;;;7.85;1.48;;;;;;;;;;5034509;28;20026;-71
2021/09/08 01:54:12;;;;;;;2.78;1.00;;;;;;;;;;5043276;28;20025;-72
2021/09/08 01:56:39;;;;;;;4.53;0.93;;;;;;;;;;5037303;28;20017;-72
2021/09/08 01:59:07;;;;;;;5.40;1.10;;;;;;;;;;5031767;28;20029;-71
2021/09/08 02:01:34;;;;;;;7.63;0.95;;;;;;;;;;5036446;28;20034;-73
2021/09/08 02:04:01;;;;;;;7.80;1.33;;;;;;;;;;5033364;28;20083;-72
2021/09/08 02:06:29;;;;;;;5.90;1.02;;;;;;;;;;5037717;28;20040;-73
2021/09/08 02:08:58;;;;;;;4.43;0.95;;;;;;;;;;5035527;28;20029;-72
2021/09/08 02:11:25;;;;;;;4.68;1.50;;;;;;;;;;5036247;28;20030;-72
2021/09/08 02:13:52;;;;;;;4.70;1.60;;;;;;;;;;5035371;28;20057;-72
2021/09/08 02:16:21;;;;;;;4.47;1.25;;;;;;;;;;5046825;28;20178;-72
2021/09/08 02:18:52;;;;;;;5.28;0.95;;;;;;;;;;5038555;28;20082;-72
2021/09/08 02:21:19;;;;;;;3.13;0.95;;;;;;;;;;5040402;28;20370;-72
2021/09/08 02:23:46;;;;;;;7.93;1.52;;;;;;;;;;5035390;28;20601;-72
2021/09/08 02:26:14;;;;;;;5.22;1.13;;;;;;;;;;5034586;28;20029;-72
2021/09/08 02:28:41;;;;;;;5.43;1.08;;;;;;;;;;5037680;28;20498;-72
2021/09/08 02:31:08;;;;;;;5.13;1.20;;;;;;;;;;5040082;28;20104;-72
2021/09/08 02:33:35;;;;;;;7.50;1.73;;;;;;;;;;5034993;28;20025;-72
2021/09/08 02:36:03;;;;;;;6.45;1.67;;;;;;;;;;5037649;28;20025;-71
2021/09/08 02:38:31;;;;;;;4.80;1.38;;;;;;;;;;5035249;28;20084;-70
2021/09/08 02:40:59;;;;;;;10.30;1.85;;;;;;;;;;5045555;28;20445;-71
2021/09/08 02:43:27;;;;;;;8.45;1.15;;;;;;;;;;5031025;28;20021;-71
2021/09/08 02:45:54;;;;;;;5.07;1.10;;;;;;;;;;5032483;28;20034;-72
2021/09/08 02:48:21;;;;;;;5.45;1.30;;;;;;;;;;5030529;28;20036;-70
2021/09/08 02:50:49;;;;;;;5.35;1.20;;;;;;;;;;5043800;28;20025;-72
2021/09/08 02:53:16;;;;;;;8.60;1.20;;;;;;;;;;5038586;28;20397;-72
2021/09/08 02:55:43;;;;;;;7.88;1.33;;;;;;;;;;5044029;28;20033;-71
2021/09/08 02:58:10;;;;;;;8.73;1.33;;;;;;;;;;5032566;28;20025;-71
2021/09/08 03:00:37;;;;;;;5.20;1.17;;;;;;;;;;5040853;28;20404;-73
2021/09/08 03:03:04;;;;;;;4.22;1.10;;;;;;;;;;5045554;28;20029;-72
2021/09/08 03:05:31;;;;;;;8.07;1.45;;;;;;;;;;5045791;28;20024;-73
2021/09/08 03:07:59;;;;;;;5.85;1.25;;;;;;;;;;5038990;28;20028;-71
2021/09/08 03:10:26;;;;;;;5.47;1.45;;;;;;;;;;5033471;28;20360;-72
2021/09/08 03:12:54;;;;;;;9.18;1.40;;;;;;;;;;5032180;28;20041;-73
2021/09/08 03:15:21;;;;;;;12.50;1.63;;;;;;;;;;5037903;28;20056;-71
2021/09/08 03:17:48;;;;;;;7.25;1.63;;;;;;;;;;5040366;28;20021;-72
2021/09/08 03:20:15;;;;;;;9.38;1.63;;;;;;;;;;5031628;28;20026;-72
2021/09/08 03:22:42;;;;;;;7.85;1.63;;;;;;;;;;5032882;28;20055;-72
2021/09/08 03:25:10;;;;;;;7.05;1.17;;;;;;;;;;5037621;28;20107;-70
2021/09/08 03:27:37;;;;;;;7.25;1.63;;;;;;;;;;5036202;28;20048;-72
2021/09/08 03:30:05;;;;;;;5.30;1.35;;;;;;;;;;5036602;28;20022;-71
2021/09/08 03:32:32;;;;;;;6.72;1.40;;;;;;;;;;5034354;28;20024;-72
2021/09/08 03:34:59;;;;;;;6.47;1.48;;;;;;;;;;5038278;28;20029;-71
2021/09/08 03:37:27;;;;;;;8.43;1.55;;;;;;;;;;5036547;28;20136;-72
2021/09/08 03:39:56;;;;;;;7.53;1.92;;;;;;;;;;5038410;28;20572;-72
2021/09/08 03:42:24;;;;;;;8.07;1.42;;;;;;;;;;5032529;28;20056;-71
2021/09/08 03:44:52;;;;;;;7.97;1.42;;;;;;;;;;5032416;28;20022;-72
2021/09/08 03:47:19;;;;;;;6.35;1.60;;;;;;;;;;5034375;28;20088;-73
2021/09/08 03:49:46;;;;;;;6.82;1.25;;;;;;;;;;5035687;28;20036;-72
2021/09/08 03:52:14;;;;;;;8.60;1.80;;;;;;;;;;5043580;28;20048;-72
2021/09/08 03:54:41;;;;;;;8.98;1.63;;;;;;;;;;5041635;28;20075;-73
2021/09/08 03:57:08;;;;;;;7.00;1.40;;;;;;;;;;5035401;28;20021;-72
2021/09/08 03:59:35;;;;;;;5.47;1.10;;;;;;;;;;5048506;28;20482;-72
2021/09/08 04:02:03;;;;;;;8.00;2.05;;;;;;;;;;5044732;28;20033;-71
2021/09/08 04:04:30;;;;;;;9.20;1.88;;;;;;;;;;5035445;28;20056;-72
2021/09/08 04:06:58;;;;;;;10.25;1.90;;;;;;;;;;5034819;28;20572;-72
2021/09/08 04:09:25;;;;;;;8.98;2.15;;;;;;;;;;5036306;28;20067;-72
2021/09/08 04:11:52;;;;;;;7.88;1.48;;;;;;;;;;5034768;28;20034;-72
2021/09/08 04:14:19;;;;;;;6.22;1.58;;;;;;;;;;5037228;28;20125;-72
2021/09/08 04:16:46;;;;;;;10.23;1.58;;;;;;;;;;5032209;28;20671;-72
2021/09/08 04:19:13;;;;;;;7.50;1.13;;;;;;;;;;5034310;28;20112;-72
2021/09/08 04:21:40;;;;;;;8.98;1.65;;;;;;;;;;5034762;28;20075;-73
2021/09/08 04:24:07;;;;;;;7.63;1.67;;;;;;;;;;5038509;28;20025;-73
2021/09/08 04:26:34;;;;;;;7.35;1.95;;;;;;;;;;5041946;28;20035;-72
2021/09/08 04:29:02;;;;;;;6.05;1.35;;;;;;;;;;5034695;28;20524;-73
2021/09/08 04:31:29;;;;;;;8.38;1.70;;;;;;;;;;5034656;28;20040;-73
2021/09/08 04:33:56;;;;;;;6.00;1.10;;;;;;;;;;5037614;28;20082;-72
2021/09/08 04:36:23;;;;;;;9.88;2.20;;;;;;;;;;5034924;28;20022;-72
2021/09/08 04:38:50;;;;;;;9.43;1.77;;;;;;;;;;5038828;28;20156;-73
2021/09/08 04:41:17;;;;;;;9.00;1.30;;;;;;;;;;5037699;28;20014;-71
2021/09/08 04:43:44;;;;;;;5.47;1.30;;;;;;;;;;5038488;28;20025;-75
2021/09/08 04:46:11;;;;;;;8.65;1.38;;;;;;;;;;5038835;28;20021;-75
2021/09/08 04:48:39;;;;;;;9.15;1.98;;;;;;;;;;5044171;28;20471;-73
2021/09/08 04:51:06;;;;;;;7.95;1.13;;;;;;;;;;5040626;28;20036;-74
2021/09/08 04:53:33;;;;;;;8.00;1.58;;;;;;;;;;5040358;28;20398;-74
2021/09/08 04:56:00;;;;;;;10.68;1.40;;;;;;;;;;5036276;28;20025;-72
2021/09/08 04:58:27;;;;;;;7.90;1.67;;;;;;;;;;5037120;28;20021;-71
2021/09/08 05:00:54;;;;;;;13.55;1.88;;;;;;;;;;5034725;28;20021;-74
2021/09/08 05:03:21;;;;;;;12.23;1.88;;;;;;;;;;5033047;28;20375;-74
2021/09/08 05:05:48;;;;;;;9.93;1.63;;;;;;;;;;5038815;28;20036;-74
2021/09/08 05:08:15;;;;;;;7.63;1.70;;;;;;;;;;5035611;28;20478;-74
2021/09/08 05:10:42;;;;;;;15.93;1.80;;;;;;;;;;5044157;28;20029;-72
2021/09/08 05:13:10;;;;;;;9.98;1.60;;;;;;;;;;5036172;28;20034;-73
2021/09/08 05:15:37;;;;;;;9.60;1.23;;;;;;;;;;5033867;28;20021;-72
2021/09/08 05:18:04;;;;;;;8.18;1.17;;;;;;;;;;5039910;28;20056;-72
2021/09/08 05:20:31;;;;;;;9.50;2.03;;;;;;;;;;5048420;28;20031;-71
2021/09/08 05:22:58;;;;;;;6.43;1.10;;;;;;;;;;5051743;28;20112;-73
2021/09/08 05:25:25;;;;;;;6.13;2.17;;;;;;;;;;5039057;28;20105;-72
2021/09/08 05:27:52;;;;;;;7.85;1.30;;;;;;;;;;5033589;28;20494;-72
2021/09/08 05:30:20;;;;;;;12.10;1.50;;;;;;;;;;5032681;28;20043;-72
2021/09/08 05:32:47;;;;;;;8.38;1.38;;;;;;;;;;5045179;28;20462;-71
2021/09/08 05:35:14;;;;;;;7.15;1.15;;;;;;;;;;5045562;28;20068;-71
2021/09/08 05:37:42;;;;;;;7.70;2.00;;;;;;;;;;5051865;28;20076;-72
2021/09/08 05:40:10;;;;;;;6.07;1.20;;;;;;;;;;5034442;28;20033;-73
2021/09/08 05:42:37;;;;;;;5.78;1.20;;;;;;;;;;5038222;28;20027;-74
2021/09/08 05:45:05;;;;;;;8.70;0.95;;;;;;;;;;5039345;28;20021;-71
2021/09/08 05:47:32;;;;;;;9.57;1.77;;;;;;;;;;5033188;28;20061;-73
2021/09/08 05:49:59;;;;;;;9.20;2.22;;;;;;;;;;5034950;28;20498;-72
2021/09/08 05:52:26;;;;;;;6.70;1.55;;;;;;;;;;5032957;28;20033;-72
2021/09/08 05:54:53;;;;;;;7.47;1.23;;;;;;;;;;5034255;28;20026;-71
2021/09/08 05:57:21;;;;;;;7.18;1.35;;;;;;;;;;5045989;28;20028;-72
2021/09/08 05:59:48;;;;;;;6.95;1.60;;;;;;;;;;5041012;28;20025;-72
2021/09/08 06:02:16;;;;;;;8.25;1.08;;;;;;;;;;5032869;28;20355;-71
2021/09/08 06:04:43;;;;;;;6.70;1.60;;;;;;;;;;5032433;28;20029;-72
2021/09/08 06:07:10;;;;;;;5.03;1.27;;;;;;;;;;5038531;28;20037;-71
2021/09/08 06:09:37;;;;;;;8.88;2.28;;;;;;;;;;5043055;28;20029;-71
2021/09/08 06:12:05;;;;;;;6.13;1.45;;;;;;;;;;5052203;28;20025;-71
2021/09/08 06:14:32;;;;;;;8.85;1.05;;;;;;;;;;5046446;28;20025;-71
2021/09/08 06:16:59;;;;;;;7.40;1.23;;;;;;;;;;5040678;28;20114;-72
2021/09/08 06:19:26;;;;;;;7.25;1.45;;;;;;;;;;5044298;28;20113;-71
2021/09/08 06:21:53;;;;;;;10.30;1.90;;;;;;;;;;5032548;28;20021;-71
2021/09/08 06:24:20;;;;;;;5.40;1.20;;;;;;;;;;5033295;28;20045;-69
2021/09/08 06:26:47;;;;;;;4.97;1.20;;;;;;;;;;5032508;28;20075;-69
2021/09/08 06:29:16;;;;;;;7.18;1.30;;;;;;;;;;5048717;28;20021;-70
2021/09/08 06:31:43;;;;;;;7.68;1.15;;;;;;;;;;5032709;28;20036;-71
2021/09/08 06:34:10;;;;;;;6.55;1.13;;;;;;;;;;5035617;28;20052;-71
2021/09/08 06:36:37;;;;;;;9.18;1.70;;;;;;;;;;5032747;28;20031;-70
2021/09/08 06:39:06;;;;;;;4.95;1.15;;;;;;;;;;5047579;28;20049;-70
2021/09/08 06:41:33;;;;;;;6.68;2.08;;;;;;;;;;5039028;28;20021;-70
2021/09/08 06:44:00;;;;;;;6.70;1.00;;;;;;;;;;5044174;28;20486;-69
2021/09/08 06:46:27;;;;;;;9.25;1.55;;;;;;;;;;5044814;28;20078;-69
2021/09/08 06:48:55;;;;;;;9.85;1.50;;;;;;;;;;5054294;28;20029;-69
2021/09/08 06:51:22;;;;;;;8.75;2.30;;;;;;;;;;5034618;28;20065;-69
2021/09/08 06:53:49;;;;;;;6.85;1.10;;;;;;;;;;5053036;28;20025;-69
2021/09/08 06:56:16;;;;;;;4.63;1.30;;;;;;;;;;5036804;28;20021;-69
2021/09/08 06:58:43;;;;;;;8.05;1.95;;;;;;;;;;5049663;28;20492;-70
2021/09/08 07:01:10;;;;;;;13.10;2.17;;;;;;;;;;5037888;28;20029;-68
2021/09/08 07:03:37;;;;;;;4.18;1.15;;;;;;;;;;5035696;28;20025;-69
2021/09/08 07:06:05;;;;;;;8.60;1.58;;;;;;;;;;5044729;28;20037;-69
2021/09/08 07:08:32;;;;;;;7.55;1.83;;;;;;;;;;5037674;28;20040;-69
2021/09/08 07:10:59;;;;;;;11.90;1.67;;;;;;;;;;5041819;28;20169;-69
2021/09/08 07:13:26;;;;;;;7.72;1.55;;;;;;;;;;5045524;28;20489;-68
2021/09/08 07:15:53;;;;;;;7.18;1.58;;;;;;;;;;5039042;28;20025;-69
2021/09/08 07:18:20;;;;;;;11.88;2.00;;;;;;;;;;5039591;28;20474;-68
2021/09/08 07:20:48;;;;;;;13.15;2.72;;;;;;;;;;5035285;28;20029;-69
2021/09/08 07:23:15;;;;;;;7.20;1.40;;;;;;;;;;5040461;28;20022;-69
2021/09/08 07:25:42;;;;;;;9.75;1.52;;;;;;;;;;5038943;28;20060;-69
2021/09/08 07:28:09;;;;;;;11.68;1.98;;;;;;;;;;5047370;28;20067;-69
2021/09/08 07:30:37;;;;;;;7.38;1.73;;;;;;;;;;5048301;28;20426;-69
2021/09/08 07:33:04;;;;;;;5.68;1.73;;;;;;;;;;5047267;28;20112;-68
2021/09/08 07:35:31;;;;;;;9.63;2.10;;;;;;;;;;5048646;28;20017;-68
2021/09/08 07:38:00;;;;;;;7.20;1.77;;;;;;;;;;5051171;28;20048;-69
2021/09/08 07:40:28;;;;;;;13.38;2.80;;;;;;;;;;5048557;28;20022;-69
2021/09/08 07:42:55;;;;;;;11.70;1.30;;;;;;;;;;5049238;28;20029;-68
2021/09/08 07:45:22;;;;;;;10.70;2.08;;;;;;;;;;5050137;28;20022;-70
2021/09/08 07:47:49;;;;;;;12.70;2.05;;;;;;;;;;5039187;28;20411;-69
2021/09/08 07:50:17;;;;;;;8.45;1.90;;;;;;;;;;5049716;28;20024;-69
2021/09/08 07:52:44;;;;;;;8.73;2.08;;;;;;;;;;5042008;28;20436;-69
2021/09/08 07:55:12;;;;;;;9.90;2.20;;;;;;;;;;5037929;28;20053;-69
2021/09/08 07:57:39;;;;;;;9.52;2.05;;;;;;;;;;5040321;28;20035;-69
2021/09/08 08:00:07;;;;;;;7.22;2.60;;;;;;;;;;5037180;28;20036;-70
2021/09/08 08:02:54;;;;;;;10.88;2.50;;;;;;;;;;5046887;28;20467;-69
2021/09/08 08:05:21;;;;;;;20.13;3.00;;;;;;;;;;5035628;28;20084;-69
2021/09/08 08:07:48;;;;;;;11.07;2.42;;;;;;;;;;5035125;28;20041;-69
2021/09/08 08:10:17;;;;;;;10.40;2.40;;;;;;;;;;5034180;28;20040;-71
2021/09/08 08:12:46;;;;;;;12.00;2.20;;;;;;;;;;5041488;28;20067;-71
2021/09/08 08:15:14;;;;;;;13.38;2.40;;;;;;;;;;5034434;28;20063;-72
2021/09/08 08:17:41;;;;;;;10.55;2.50;;;;;;;;;;5036006;28;20021;-71
2021/09/08 08:20:10;;;;;;;15.85;2.78;;;;;;;;;;5037744;28;20040;-70
2021/09/08 08:22:37;;;;;;;7.60;1.85;;;;;;;;;;5034332;28;20055;-70
2021/09/08 08:25:06;;;;;;;12.30;2.63;;;;;;;;;;5035625;28;20025;-69
2021/09/08 08:27:33;;;;;;;10.95;2.30;;;;;;;;;;5039737;28;20087;-70
2021/09/08 08:30:00;;;;;;;12.90;2.30;;;;;;;;;;5033616;28;20029;-69
2021/09/08 08:32:27;;;;;;;9.00;1.88;;;;;;;;;;5032927;28;20025;-70
2021/09/08 08:34:54;;;;;;;13.05;2.17;;;;;;;;;;5035456;28;20025;-70
2021/09/08 08:37:21;;;;;;;12.15;2.50;;;;;;;;;;5033624;28;20057;-69
2021/09/08 08:39:49;;;;;;;14.50;2.88;;;;;;;;;;5035136;28;20034;-71
2021/09/08 08:42:27;;;;;;;12.68;3.53;;;;;;;;;;5042422;28;20100;-71
2021/09/08 08:44:54;;;;;;;10.80;2.95;;;;;;;;;;5034644;28;20034;-70
2021/09/08 08:47:21;;;;;;;14.02;3.60;;;;;;;;;;5033476;28;20537;-70
2021/09/08 08:49:49;;;;;;;15.05;3.10;;;;;;;;;;5033006;28;20030;-69
2021/09/08 08:52:17;;;;;;;12.90;3.10;;;;;;;;;;5033581;28;20036;-69
2021/09/08 08:54:44;;;;;;;17.80;2.78;;;;;;;;;;5034771;28;20028;-69
2021/09/08 08:57:12;;;;;;;11.73;2.83;;;;;;;;;;5036629;28;20024;-70
2021/09/08 08:59:41;;;;;;;13.88;3.00;;;;;;;;;;5032665;28;20052;-69
2021/09/08 09:02:17;;;;;;;17.67;3.63;;;;;;;;;;5033006;28;20018;-70
2021/09/08 09:04:44;;;;;;;12.88;2.60;;;;;;;;;;5040690;28;20025;-69
2021/09/08 09:07:30;;;;;;;15.55;3.42;;;;;;;;;;5031917;28;20104;-70
2021/09/08 09:09:58;;;;;;;11.23;2.85;;;;;;;;;;5033529;28;20458;-70
2021/09/08 09:12:27;;;;;;;17.08;3.05;;;;;;;;;;5038876;28;20112;-69
2021/09/08 09:14:58;;;;;;;12.50;2.33;;;;;;;;;;5032950;28;20397;-70
2021/09/08 09:17:33;;;;;;;14.02;3.47;;;;;;;;;;5032616;28;20037;-70
2021/09/08 09:20:02;;;;;;;20.33;3.88;;;;;;;;;;5035718;28;20099;-69
2021/09/08 09:22:40;;;;;;;16.77;3.25;;;;;;;;;;5036055;28;20425;-69
2021/09/08 09:25:08;;;;;;;21.48;4.57;;;;;;;;;;5031821;28;20018;-71
2021/09/08 09:27:39;;;;;;;12.57;3.08;;;;;;;;;;5038165;28;20018;-69
2021/09/08 09:30:08;;;;;;;19.65;4.65;;;;;;;;;;5034554;28;20363;-70
2021/09/08 09:32:37;;;;;;;14.65;3.90;;;;;;;;;;5039733;28;20053;-71
2021/09/08 09:35:04;;;;;;;15.77;3.80;;;;;;;;;;5031895;28;20033;-69
2021/09/08 09:37:35;;;;;;;20.63;4.90;;;;;;;;;;5032195;28;20049;-69
2021/09/08 09:40:04;;;;;;;19.70;4.63;;;;;;;;;;5034320;28;20017;-69
2021/09/08 09:42:32;;;;;;;13.68;3.83;;;;;;;;;;5033469;28;20777;-69
2021/09/08 09:45:05;;;;;;;22.15;4.07;;;;;;;;;;5034169;28;20412;-68
2021/09/08 09:47:38;;;;;;;27.92;4.57;;;;;;;;;;5034842;28;20067;-69
2021/09/08 09:50:07;;;;;;;21.80;3.70;;;;;;;;;;5033293;28;20034;-69
2021/09/08 09:52:35;;;;;;;23.15;4.38;;;;;;;;;;5047032;28;20025;-69
2021/09/08 09:55:03;;;;;;;17.40;4.68;;;;;;;;;;5035875;28;20029;-69
2021/09/08 09:57:30;;;;;;;17.83;4.22;;;;;;;;;;5040501;28;20025;-69
2021/09/08 09:59:59;;;;;;;16.90;3.97;;;;;;;;;;5038598;28;20033;-70
2021/09/08 10:02:29;;;;;;;21.27;4.00;;;;;;;;;;5033226;28;20112;-69
2021/09/08 10:04:56;;;;;;;22.13;3.80;;;;;;;;;;5037207;28;20512;-69
2021/09/08 10:07:24;;;;;;;19.90;5.25;;;;;;;;;;5032799;28;20025;-70
2021/09/08 10:09:55;;;;;;;19.52;4.53;;;;;;;;;;5038957;28;20474;-70
2021/09/08 10:12:23;;;;;;;19.30;3.55;;;;;;;;;;5044396;28;20394;-71
2021/09/08 10:14:50;;;;;;;19.25;4.38;;;;;;;;;;5042191;28;20019;-70
2021/09/08 10:17:21;;;;;;;21.70;4.18;;;;;;;;;;5035878;28;20028;-70
2021/09/08 10:19:50;;;;;;;19.25;3.67;;;;;;;;;;5039249;28;20140;-71
2021/09/08 10:22:17;;;;;;;21.40;4.25;;;;;;;;;;5033152;28;20022;-69
2021/09/08 10:24:48;;;;;;;16.80;5.07;;;;;;;;;;5032795;28;20029;-69
2021/09/08 10:27:23;;;;;;;21.77;4.30;;;;;;;;;;5034217;28;20363;-69
2021/09/08 10:29:52;;;;;;;24.38;5.20;;;;;;;;;;5045628;28;20048;-69
2021/09/08 10:32:20;;;;;;;22.23;5.55;;;;;;;;;;5034933;28;20099;-69
2021/09/08 10:34:48;;;;;;;19.20;4.97;;;;;;;;;;5035014;28;20030;-69
2021/09/08 10:37:16;;;;;;;19.08;4.53;;;;;;;;;;5036377;28;20486;-69
2021/09/08 10:39:43;;;;;;;19.95;4.22;;;;;;;;;;5044786;28;20029;-69
2021/09/08 10:42:10;;;;;;;19.23;5.32;;;;;;;;;;5034250;28;20032;-69
2021/09/08 10:44:45;;;;;;;18.77;4.45;;;;;;;;;;5037597;28;20068;-70
2021/09/08 10:47:15;;;;;;;19.77;4.57;;;;;;;;;;5031750;28;20037;-70
2021/09/08 10:49:42;;;;;;;23.50;6.32;;;;;;;;;;5034844;28;20060;-70
2021/09/08 10:52:10;;;;;;;23.52;6.72;;;;;;;;;;5035222;28;20033;-70
2021/09/08 10:55:13;;;;;;;21.92;4.00;;;;;;;;;;5051747;28;20435;-70
2021/09/08 10:57:40;;;;;;;20.10;4.55;;;;;;;;;;5032164;28;20036;-70
2021/09/08 11:00:09;;;;;;;20.58;4.07;;;;;;;;;;5039107;28;20036;-70
2021/09/08 11:02:42;;;;;;;21.27;5.35;;;;;;;;;;5037928;28;20090;-69
2021/09/08 11:05:10;;;;;;;23.63;5.43;;;;;;;;;;5037826;28;20029;-69
2021/09/08 11:07:40;;;;;;;24.25;4.55;;;;;;;;;;5039843;28;20033;-70
2021/09/08 11:10:08;;;;;;;24.27;4.65;;;;;;;;;;5033478;28;20029;-70
2021/09/08 11:12:55;;;;;;;21.20;4.50;;;;;;;;;;5031974;28;20033;-69
2021/09/08 11:15:35;;;;;;;24.23;5.05;;;;;;;;;;5038617;28;20029;-71
2021/09/08 11:18:06;;;;;;;22.88;3.70;;;;;;;;;;5032556;28;20061;-70
2021/09/08 11:20:34;;;;;;;21.92;4.60;;;;;;;;;;5048722;28;20029;-71
2021/09/08 11:23:11;;;;;;;21.98;5.20;;;;;;;;;;5042402;28;20045;-70
2021/09/08 11:25:43;;;;;;;22.05;4.43;;;;;;;;;;5032588;28;20425;-71
2021/09/08 11:28:11;;;;;;;19.08;4.28;;;;;;;;;;5037333;28;20035;-70
2021/09/08 11:30:39;;;;;;;18.83;4.00;;;;;;;;;;5046649;28;20032;-70
2021/09/08 11:33:07;;;;;;;16.33;3.88;;;;;;;;;;5051245;28;20041;-70
2021/09/08 11:35:40;;;;;;;16.20;3.88;;;;;;;;;;5033935;28;20632;-70
2021/09/08 11:38:14;;;;;;;19.63;4.22;;;;;;;;;;5033351;28;20176;-69
2021/09/08 11:40:45;;;;;;;23.38;5.13;;;;;;;;;;5043582;28;20014;-70
2021/09/08 11:43:12;;;;;;;19.05;4.38;;;;;;;;;;5034682;28;20021;-71
2021/09/08 11:45:40;;;;;;;19.60;4.03;;;;;;;;;;5035579;28;20036;-68
2021/09/08 11:48:07;;;;;;;15.10;4.47;;;;;;;;;;5037689;28;20070;-67
2021/09/08 11:50:35;;;;;;;23.70;4.68;;;;;;;;;;5035858;28;20030;-68
2021/09/08 11:53:03;;;;;;;18.40;4.78;;;;;;;;;;5037131;28;20532;-69
2021/09/08 11:55:37;;;;;;;14.20;4.30;;;;;;;;;;5043465;28;20155;-69
2021/09/08 11:58:23;;;;;;;24.80;5.38;;;;;;;;;;5033865;28;20014;-70
2021/09/08 12:00:57;;;;;;;25.52;5.80;;;;;;;;;;5040863;28;20041;-68
2021/09/08 12:03:25;;;;;;;21.08;4.93;;;;;;;;;;5035249;28;20124;-69
2021/09/08 12:05:53;;;;;;;22.77;4.28;;;;;;;;;;5039500;28;20028;-69
2021/09/08 12:08:21;;;;;;;18.10;3.80;;;;;;;;;;5035120;28;20600;-70
2021/09/08 12:10:48;;;;;;;26.10;4.05;;;;;;;;;;5031999;28;20037;-68
2021/09/08 12:13:29;;;;;;;20.60;4.63;;;;;;;;;;5037454;28;20406;-68
2021/09/08 12:15:57;;;;;;;16.85;3.92;;;;;;;;;;5041639;28;20025;-68
2021/09/08 12:18:24;;;;;;;21.55;4.22;;;;;;;;;;5047057;28;20021;-70
2021/09/08 12:20:51;;;;;;;18.13;4.93;;;;;;;;;;5042078;28;20494;-69
2021/09/08 12:23:25;;;;;;;21.23;3.85;;;;;;;;;;5037835;28;20059;-69
2021/09/08 12:26:08;;;;;;;15.30;4.20;;;;;;;;;;5040275;28;20029;-68
2021/09/08 12:28:36;;;;;;;26.30;4.25;;;;;;;;;;5039222;28;20029;-69
2021/09/08 12:31:19;;;;;;;22.67;4.63;;;;;;;;;;5044003;28;20508;-68
2021/09/08 12:33:53;;;;;;;19.52;5.15;;;;;;;;;;5039399;28;20504;-69
2021/09/08 12:36:23;;;;;;;15.48;4.53;;;;;;;;;;5045690;28;20017;-69
2021/09/08 12:38:53;;;;;;;28.85;5.45;;;;;;;;;;5038972;28;20111;-69
2021/09/08 12:41:25;;;;;;;19.45;4.18;;;;;;;;;;5042417;28;20021;-69
2021/09/08 12:43:56;;;;;;;19.92;5.38;;;;;;;;;;5042298;28;20024;-69
2021/09/08 12:46:41;;;;;;;19.52;4.03;;;;;;;;;;5045820;28;20055;-69
2021/09/08 12:49:10;;;;;;;20.70;5.40;;;;;;;;;;5051002;28;20032;-69
2021/09/08 12:51:37;;;;;;;20.65;4.20;;;;;;;;;;5044740;28;20029;-68
2021/09/08 12:54:08;;;;;;;22.98;4.97;;;;;;;;;;5038353;28;20049;-70
2021/09/08 12:56:36;;;;;;;18.92;4.80;;;;;;;;;;5041018;28;20675;-69
2021/09/08 12:59:03;;;;;;;17.05;4.07;;;;;;;;;;5047652;28;20029;-68
2021/09/08 13:01:31;;;;;;;17.92;4.75;;;;;;;;;;5043472;28;20029;-69
2021/09/08 13:03:58;;;;;;;18.02;3.90;;;;;;;;;;5035972;28;20517;-69
2021/09/08 13:06:25;;;;;;;18.38;4.07;;;;;;;;;;5044237;28;20035;-69
2021/09/08 13:08:52;;;;;;;20.20;3.88;;;;;;;;;;5039785;28;20018;-68
2021/09/08 13:11:19;;;;;;;18.52;4.60;;;;;;;;;;5038196;28;20025;-69
2021/09/08 13:13:46;;;;;;;16.83;3.80;;;;;;;;;;5044314;28;20025;-69
2021/09/08 13:16:15;;;;;;;20.95;4.90;;;;;;;;;;5042437;28;20096;-70
2021/09/08 13:18:42;;;;;;;20.17;4.45;;;;;;;;;;5043595;28;20013;-69
2021/09/08 13:21:09;;;;;;;16.80;3.50;;;;;;;;;;5040359;28;20071;-68
2021/09/08 13:23:36;;;;;;;22.35;4.32;;;;;;;;;;5045065;28;20128;-69
2021/09/08 13:26:04;;;;;;;16.80;3.75;;;;;;;;;;5033708;28;20378;-69
2021/09/08 13:28:31;;;;;;;18.73;4.88;;;;;;;;;;5044741;28;20063;-69
2021/09/08 13:30:59;;;;;;;18.92;4.20;;;;;;;;;;5048316;28;20124;-69
2021/09/08 13:33:29;;;;;;;18.83;4.70;;;;;;;;;;5041533;28;20024;-69
2021/09/08 13:35:59;;;;;;;17.27;3.63;;;;;;;;;;5042443;28;20078;-69
2021/09/08 13:38:26;;;;;;;19.05;4.65;;;;;;;;;;5039767;28;20043;-69
2021/09/08 13:40:54;;;;;;;19.27;5.53;;;;;;;;;;5040654;28;20057;-68
2021/09/08 13:43:21;;;;;;;19.20;4.80;;;;;;;;;;5045079;28;20053;-68
2021/09/08 13:45:48;;;;;;;18.50;4.32;;;;;;;;;;5033281;28;20033;-69
2021/09/08 13:48:15;;;;;;;15.77;3.88;;;;;;;;;;5042087;28;20025;-68
2021/09/08 13:50:44;;;;;;;22.08;4.30;;;;;;;;;;5041113;28;20477;-69
2021/09/08 13:53:11;;;;;;;22.65;6.00;;;;;;;;;;5032877;28;20045;-69
2021/09/08 13:55:38;;;;;;;20.40;4.65;;;;;;;;;;5046713;28;20021;-68
2021/09/08 13:58:09;;;;;;;16.38;4.28;;;;;;;;;;5044677;28;20021;-68
2021/09/08 14:00:37;;;;;;;21.23;4.88;;;;;;;;;;5047322;28;20029;-69
2021/09/08 14:03:05;;;;;;;16.15;4.45;;;;;;;;;;5039877;28;20064;-69
2021/09/08 14:05:32;;;;;;;17.80;4.70;;;;;;;;;;5052838;28;20021;-70
2021/09/08 14:07:59;;;;;;;19.13;4.15;;;;;;;;;;5043094;28;20448;-70
2021/09/08 14:10:29;;;;;;;17.98;3.90;;;;;;;;;;5032671;28;20026;-68
2021/09/08 14:12:56;;;;;;;18.38;5.10;;;;;;;;;;5042455;28;20490;-69
2021/09/08 14:15:23;;;;;;;18.55;4.10;;;;;;;;;;5039009;28;20112;-70
2021/09/08 14:17:51;;;;;;;24.13;5.43;;;;;;;;;;5046163;28;20068;-68
2021/09/08 14:20:18;;;;;;;19.45;4.13;;;;;;;;;;5043626;28;20070;-68
2021/09/08 14:22:45;;;;;;;21.67;4.60;;;;;;;;;;5052583;28;20541;-69
2021/09/08 14:25:12;;;;;;;17.55;4.20;;;;;;;;;;5052755;28;20425;-70
2021/09/08 14:27:39;;;;;;;22.10;5.00;;;;;;;;;;5046560;28;20021;-70
2021/09/08 14:30:07;;;;;;;12.50;3.58;;;;;;;;;;5048366;28;20040;-69
2021/09/08 14:32:34;;;;;;;14.55;4.18;;;;;;;;;;5043013;28;20036;-69
2021/09/08 14:35:02;;;;;;;14.63;3.88;;;;;;;;;;5039694;28;20477;-70
2021/09/08 14:37:29;;;;;;;21.65;3.83;;;;;;;;;;5031814;28;20046;-68
2021/09/08 14:39:56;;;;;;;16.73;3.58;;;;;;;;;;5046921;28;20033;-68
2021/09/08 14:42:23;;;;;;;14.70;4.35;;;;;;;;;;5040234;28;20504;-68